createdAt,value
2023-01-11T00:02:24.294Z,76.99
2023-01-11T00:05:18.970Z,77.16
2023-01-11T00:07:55.866Z,77.25
2023-01-11T00:10:30.882Z,77.26
2023-01-11T00:13:12.570Z,77.50
2023-01-11T00:15:46.844Z,77.51
2023-01-11T00:18:20.356Z,77.59
2023-01-11T00:20:54.000Z,77.53
2023-01-11T00:23:42.545Z,77.68
2023-01-11T00:26:36.599Z,77.49
2023-01-11T00:29:10.809Z,77.43
2023-01-11T00:32:30.211Z,77.49
2023-01-11T00:35:03.694Z,77.29
2023-01-11T00:37:37.236Z,77.36
2023-01-11T00:40:12.498Z,77.64
2023-01-11T00:43:03.016Z,77.68
2023-01-11T00:45:53.653Z,77.59
2023-01-11T00:48:27.152Z,77.34
2023-01-11T00:51:01.012Z,77.21
2023-01-11T00:53:34.342Z,77.30
2023-01-11T00:56:08.506Z,77.32
2023-01-11T00:58:41.827Z,77.36
2023-01-11T01:01:15.102Z,77.38
2023-01-11T01:03:48.640Z,77.55
2023-01-11T01:06:21.948Z,77.59
2023-01-11T01:08:55.375Z,77.66
2023-01-11T01:11:28.760Z,77.67
2023-01-11T01:14:19.328Z,77.69
2023-01-11T01:16:52.750Z,77.73
2023-01-11T01:19:28.042Z,77.72
2023-01-11T01:22:02.186Z,77.64
2023-01-11T01:24:35.840Z,77.74
2023-01-11T01:27:09.068Z,77.96
2023-01-11T01:29:42.360Z,78.19
2023-01-11T01:32:15.858Z,78.12
2023-01-11T01:34:49.235Z,77.91
2023-01-11T01:37:22.543Z,77.88
2023-01-11T01:39:55.845Z,77.88
2023-01-11T01:42:29.174Z,78.08
2023-01-11T01:45:07.034Z,78.07
2023-01-11T01:47:49.168Z,78.07
2023-01-11T01:50:25.861Z,78.03
2023-01-11T01:53:05.098Z,78.18
2023-01-11T01:55:40.949Z,78.08
2023-01-11T01:58:18.225Z,78.10
2023-01-11T02:00:52.257Z,78.09
2023-01-11T02:03:28.710Z,78.27
2023-01-11T02:06:01.977Z,78.32
2023-01-11T02:08:40.794Z,78.26
2023-01-11T02:14:22.471Z,78.13
2023-01-11T02:16:54.472Z,78.20
2023-01-11T02:19:53.027Z,78.19
2023-01-11T02:23:01.686Z,78.26
2023-01-11T02:26:02.919Z,78.50
2023-01-11T02:28:42.067Z,78.51
2023-01-11T02:31:27.470Z,78.43
2023-01-11T02:34:16.449Z,78.28
2023-01-11T02:37:04.635Z,78.36
2023-01-11T02:39:51.423Z,78.50
2023-01-11T02:42:51.358Z,78.35
2023-01-11T02:45:38.117Z,78.38
2023-01-11T02:48:21.309Z,78.58
2023-01-11T02:51:04.529Z,78.72
2023-01-11T02:53:43.237Z,78.72
2023-01-11T02:56:21.882Z,78.37
2023-01-11T02:58:58.226Z,78.39
2023-01-11T03:01:31.912Z,78.63
2023-01-11T03:04:05.896Z,78.93
2023-01-11T03:06:40.101Z,78.86
2023-01-11T03:09:21.038Z,78.42
2023-01-11T03:12:32.597Z,78.81
2023-01-11T03:15:19.194Z,78.91
2023-01-11T03:18:04.041Z,78.87
2023-01-11T03:20:43.419Z,79.05
2023-01-11T03:23:24.004Z,79.20
2023-01-11T03:26:07.739Z,78.74
2023-01-11T03:28:50.624Z,78.46
2023-01-11T03:31:32.643Z,78.81
2023-01-11T03:34:17.096Z,79.17
2023-01-11T03:36:56.945Z,79.40
2023-01-11T03:39:35.077Z,79.44
2023-01-11T03:42:12.589Z,79.48
2023-01-11T03:44:48.680Z,79.59
2023-01-11T03:47:25.883Z,79.50
2023-01-11T03:50:05.262Z,79.30
2023-01-11T03:52:43.439Z,79.68
2023-01-11T03:55:19.153Z,79.71
2023-01-11T03:57:53.146Z,79.60
2023-01-11T04:00:29.242Z,79.71
2023-01-11T04:03:03.802Z,79.64
2023-01-11T04:05:40.178Z,79.74
2023-01-11T04:08:13.802Z,79.73
2023-01-11T04:10:47.652Z,79.75
2023-01-11T04:13:21.259Z,79.48
2023-01-11T04:15:56.085Z,79.38
2023-01-11T04:18:30.037Z,79.60
2023-01-11T04:21:03.354Z,80.02
2023-01-11T04:23:37.315Z,80.22
2023-01-11T04:26:11.409Z,80.03
2023-01-11T04:28:45.203Z,79.97
2023-01-11T04:31:18.557Z,79.87
2023-01-11T04:33:52.358Z,79.93
2023-01-11T04:36:26.770Z,79.70
2023-01-11T04:39:00.301Z,79.53
2023-01-11T04:41:51.470Z,79.58
2023-01-11T04:44:25.679Z,79.94
2023-01-11T04:46:59.443Z,80.06
2023-01-11T04:49:33.478Z,80.30
2023-01-11T04:52:07.738Z,80.19
2023-01-11T04:54:41.727Z,80.09
2023-01-11T04:57:17.172Z,80.18
2023-01-11T04:59:50.998Z,80.34
2023-01-11T05:02:24.609Z,79.99
2023-01-11T05:04:58.223Z,80.17
2023-01-11T05:07:32.377Z,80.21
2023-01-11T05:10:06.305Z,80.24
2023-01-11T05:12:40.043Z,80.52
2023-01-11T05:15:14.796Z,80.86
2023-01-11T05:17:48.034Z,80.93
2023-01-11T05:20:21.987Z,80.84
2023-01-11T05:22:55.668Z,81.06
2023-01-11T05:25:29.113Z,81.05
2023-01-11T05:28:02.649Z,80.92
2023-01-11T05:30:36.253Z,80.90
2023-01-11T05:33:09.933Z,81.00
2023-01-11T05:35:43.817Z,80.95
2023-01-11T05:38:17.574Z,81.19
2023-01-11T05:40:58.268Z,81.35
2023-01-11T05:43:33.449Z,81.43
2023-01-11T05:46:08.256Z,81.38
2023-01-11T05:48:41.577Z,81.27
2023-01-11T05:51:15.179Z,81.27
2023-01-11T05:53:48.956Z,81.45
2023-01-11T05:56:22.786Z,81.42
2023-01-11T05:58:57.064Z,81.33
2023-01-11T06:01:30.859Z,81.52
2023-01-11T06:04:04.792Z,81.61
2023-01-11T06:06:39.075Z,81.54
2023-01-11T06:09:13.260Z,81.49
2023-01-11T06:11:46.905Z,81.30
2023-01-11T06:14:20.921Z,81.37
2023-01-11T06:16:55.108Z,81.39
2023-01-11T06:19:28.701Z,81.69
2023-01-11T06:22:02.621Z,81.55
2023-01-11T06:24:36.124Z,81.43
2023-01-11T06:27:10.030Z,81.56
2023-01-11T06:29:43.585Z,81.64
2023-01-11T06:32:17.493Z,81.37
2023-01-11T06:34:51.156Z,81.64
2023-01-11T06:37:25.196Z,81.59
2023-01-11T06:39:59.054Z,81.49
2023-01-11T06:42:33.098Z,81.42
2023-01-11T06:45:08.278Z,81.46
2023-01-11T06:47:42.131Z,81.22
2023-01-11T06:50:16.053Z,81.23
2023-01-11T06:52:56.700Z,81.14
2023-01-11T06:55:32.217Z,81.11
2023-01-11T06:58:05.983Z,81.25
2023-01-11T07:00:39.908Z,81.00
2023-01-11T07:03:14.610Z,80.96
2023-01-11T07:05:48.558Z,81.07
2023-01-11T07:08:22.822Z,81.18
2023-01-11T07:10:57.270Z,81.12
2023-01-11T07:13:31.004Z,80.91
2023-01-11T07:16:05.003Z,80.90
2023-01-11T07:18:39.043Z,80.90
2023-01-11T07:21:12.698Z,81.13
2023-01-11T07:23:49.127Z,80.86
2023-01-11T07:26:22.924Z,80.60
2023-01-11T07:28:56.500Z,80.65
2023-01-11T07:31:30.754Z,80.81
2023-01-11T07:34:04.350Z,80.88
2023-01-11T07:36:39.947Z,81.00
2023-01-11T07:39:14.017Z,80.89
2023-01-11T07:42:05.514Z,80.68
2023-01-11T07:44:39.817Z,80.74
2023-01-11T07:47:13.811Z,80.77
2023-01-11T07:49:47.649Z,80.94
2023-01-11T07:52:21.874Z,81.03
2023-01-11T07:54:55.621Z,80.71
2023-01-11T07:57:29.661Z,80.56
2023-01-11T08:00:03.536Z,80.31
2023-01-11T08:02:45.624Z,80.64
2023-01-11T08:05:19.811Z,80.67
2023-01-11T08:07:53.470Z,80.62
2023-01-11T08:10:27.458Z,79.76
2023-01-11T08:13:19.999Z,79.81
2023-01-11T08:15:54.102Z,79.73
2023-01-11T08:18:27.567Z,79.96
2023-01-11T08:21:01.270Z,79.92
2023-01-11T08:23:36.049Z,79.90
2023-01-11T08:26:09.952Z,79.49
2023-01-11T08:28:43.875Z,79.05
2023-01-11T08:31:17.498Z,79.52
2023-01-11T08:33:52.038Z,79.60
2023-01-11T08:36:28.147Z,79.75
2023-01-11T08:39:02.188Z,79.32
2023-01-11T08:41:36.279Z,78.90
2023-01-11T08:44:11.828Z,79.26
2023-01-11T08:46:46.151Z,79.58
2023-01-11T08:49:19.864Z,79.32
2023-01-11T08:51:55.656Z,79.14
2023-01-11T08:54:29.642Z,79.22
2023-01-11T08:57:03.636Z,79.65
2023-01-11T08:59:37.553Z,79.75
2023-01-11T09:02:11.797Z,79.64
2023-01-11T09:04:45.960Z,79.62
2023-01-11T09:07:19.952Z,79.61
2023-01-11T09:09:53.652Z,79.54
2023-01-11T09:12:28.026Z,79.62
2023-01-11T09:15:01.891Z,79.23
2023-01-11T09:17:35.951Z,79.37
2023-01-11T09:20:12.301Z,79.20
2023-01-11T09:22:51.956Z,79.36
2023-01-11T09:25:27.144Z,79.33
2023-01-11T09:28:01.229Z,79.08
2023-01-11T09:30:35.095Z,78.69
2023-01-11T09:33:08.999Z,78.73
2023-01-11T09:35:43.253Z,78.92
2023-01-11T09:38:17.318Z,79.13
2023-01-11T09:41:00.876Z,79.07
2023-01-11T09:43:39.053Z,79.23
2023-01-11T09:46:15.576Z,79.40
2023-01-11T09:48:54.423Z,79.43
2023-01-11T09:51:33.724Z,79.66
2023-01-11T09:54:11.431Z,79.54
2023-01-11T09:56:54.233Z,79.62
2023-01-11T09:59:35.320Z,79.85
2023-01-11T10:02:19.946Z,79.89
2023-01-11T10:05:24.037Z,79.53
2023-01-11T10:18:25.680Z,79.13
2023-01-11T10:18:31.136Z,79.43
2023-01-11T10:20:28.474Z,78.95
2023-01-11T10:23:07.125Z,78.60
2023-01-11T10:25:52.253Z,78.86
2023-01-11T10:28:33.750Z,78.99
2023-01-11T10:31:30.572Z,78.93
2023-01-11T10:34:25.261Z,78.92
2023-01-11T10:37:19.429Z,78.68
2023-01-11T10:40:20.389Z,78.68
2023-01-11T10:43:04.062Z,79.00
2023-01-11T10:45:46.721Z,79.20
2023-01-11T10:48:28.343Z,78.89
2023-01-11T10:51:09.945Z,78.72
2023-01-11T10:53:56.609Z,78.83
2023-01-11T10:56:42.954Z,78.61
2023-01-11T11:00:07.485Z,78.50
2023-01-11T11:03:17.241Z,78.21
2023-01-11T11:06:03.028Z,78.37
2023-01-11T11:08:47.100Z,78.15
2023-01-11T11:11:28.904Z,78.35
2023-01-11T11:14:11.108Z,78.15
2023-01-11T11:16:57.860Z,77.86
2023-01-11T11:19:33.796Z,77.85
2023-01-11T11:22:08.635Z,77.83
2023-01-11T11:24:45.990Z,77.84
2023-01-11T11:27:26.824Z,77.60
2023-01-11T11:30:00.566Z,76.97
2023-01-11T11:32:37.491Z,76.96
2023-01-11T11:35:39.826Z,77.06
2023-01-11T11:38:31.580Z,77.09
2023-01-11T11:41:11.400Z,77.14
2023-01-11T11:43:46.212Z,77.34
2023-01-11T11:46:29.955Z,77.61
2023-01-11T11:49:17.985Z,77.49
2023-01-11T11:51:52.508Z,77.39
2023-01-11T11:54:29.944Z,77.27
2023-01-11T11:57:17.176Z,76.98
2023-01-11T11:59:57.598Z,76.61
2023-01-11T12:02:34.000Z,76.43
2023-01-11T12:05:12.677Z,76.51
2023-01-11T12:07:55.090Z,76.68
2023-01-11T12:10:31.744Z,76.61
2023-01-11T12:13:26.393Z,76.77
2023-01-11T12:16:05.276Z,77.01
2023-01-11T12:18:44.180Z,76.71
2023-01-11T12:21:24.385Z,76.31
2023-01-11T12:24:18.679Z,76.63
2023-01-11T12:27:04.936Z,76.57
2023-01-11T12:29:54.910Z,76.30
2023-01-11T12:32:50.771Z,76.60
2023-01-11T12:35:41.467Z,76.62
2023-01-11T12:38:40.692Z,76.42
2023-01-11T12:41:50.452Z,76.28
2023-01-11T12:44:33.841Z,76.54
2023-01-11T12:47:41.604Z,76.34
2023-01-11T12:50:21.173Z,76.27
2023-01-11T12:53:15.456Z,76.39
2023-01-11T12:55:58.953Z,76.55
2023-01-11T12:58:37.710Z,76.56
2023-01-11T13:01:21.524Z,76.33
2023-01-11T13:04:27.749Z,76.70
2023-01-11T13:07:10.492Z,77.04
2023-01-11T13:09:56.408Z,77.00
2023-01-11T13:12:38.316Z,76.72
2023-01-11T13:15:27.222Z,76.75
2023-01-11T13:18:06.993Z,76.45
2023-01-11T13:21:00.457Z,76.29
2023-01-11T13:23:44.044Z,76.30
2023-01-11T13:26:23.629Z,76.38
2023-01-11T13:29:03.139Z,76.64
2023-01-11T13:31:37.878Z,76.52
2023-01-11T13:34:20.972Z,76.49
2023-01-11T13:36:59.562Z,76.68
2023-01-11T13:39:41.940Z,76.76
2023-01-11T13:42:22.062Z,76.62
2023-01-11T13:45:00.125Z,76.63
2023-01-11T13:47:41.125Z,76.81
2023-01-11T13:50:22.863Z,77.12
2023-01-11T13:53:10.294Z,77.28
2023-01-11T13:55:54.807Z,77.37
2023-01-11T13:58:32.570Z,77.68
2023-01-11T14:01:12.077Z,77.65
2023-01-11T14:03:51.566Z,77.75
2023-01-11T14:06:42.589Z,77.55
2023-01-11T14:09:32.177Z,77.52
2023-01-11T14:12:16.244Z,77.76
2023-01-11T14:15:09.629Z,77.82
2023-01-11T14:18:12.459Z,77.81
2023-01-11T14:20:54.155Z,77.80
2023-01-11T14:23:37.976Z,78.02
2023-01-11T14:26:44.947Z,77.98
2023-01-11T14:29:48.473Z,78.14
2023-01-11T14:32:46.463Z,78.34
2023-01-11T14:35:56.508Z,78.32
2023-01-11T14:38:52.925Z,78.58
2023-01-11T14:41:56.563Z,78.76
2023-01-11T14:45:13.652Z,78.75
2023-01-11T14:48:16.144Z,78.44
2023-01-11T14:51:07.283Z,78.45
2023-01-11T14:53:45.144Z,78.71
2023-01-11T14:56:52.917Z,78.74
2023-01-11T14:59:34.752Z,78.71
2023-01-11T15:02:30.355Z,78.74
2023-01-11T15:05:36.065Z,78.88
2023-01-11T15:08:25.420Z,79.08
2023-01-11T15:11:05.791Z,79.18
2023-01-11T15:13:46.679Z,79.09
2023-01-11T15:16:42.290Z,79.13
2023-01-11T15:19:28.443Z,79.18
2023-01-11T15:22:04.702Z,79.29
2023-01-11T15:24:42.584Z,79.33
2023-01-11T15:27:29.438Z,79.32
2023-01-11T15:30:03.501Z,79.20
2023-01-11T15:32:38.082Z,79.38
2023-01-11T15:35:36.143Z,79.28
2023-01-11T15:38:16.869Z,79.41
2023-01-11T15:40:52.789Z,79.66
2023-01-11T15:43:53.822Z,79.69
2023-01-11T15:46:57.289Z,79.75
2023-01-11T15:49:59.445Z,79.86
2023-01-11T15:53:03.197Z,79.79
2023-01-11T15:56:07.106Z,79.84
2023-01-11T15:59:07.248Z,80.06
2023-01-11T16:01:55.494Z,80.06
2023-01-11T16:04:33.907Z,80.05
2023-01-11T16:07:17.653Z,79.93
2023-01-11T16:10:20.924Z,80.00
2023-01-11T16:13:06.189Z,79.99
2023-01-11T16:15:56.747Z,80.03
2023-01-11T16:18:36.962Z,79.86
2023-01-11T16:21:18.578Z,79.79
2023-01-11T16:23:52.974Z,79.70
2023-01-11T16:26:27.264Z,79.85
2023-01-11T16:29:10.395Z,79.78
2023-01-11T16:31:58.856Z,79.75
2023-01-11T16:34:31.397Z,79.80
2023-01-11T16:37:20.548Z,79.75
2023-01-11T16:39:59.434Z,80.06
2023-01-11T16:42:41.561Z,79.99
2023-01-11T16:45:21.140Z,79.92
2023-01-11T16:48:09.113Z,79.98
2023-01-11T16:50:45.630Z,80.20
2023-01-11T16:53:19.571Z,80.10
2023-01-11T16:55:59.937Z,80.03
2023-01-11T16:58:35.631Z,80.02
2023-01-11T17:01:12.101Z,79.88
2023-01-11T17:03:52.997Z,79.88
2023-01-11T17:06:27.786Z,79.73
2023-01-11T17:09:10.955Z,79.79
2023-01-11T17:11:50.486Z,79.80
2023-01-11T17:15:03.136Z,79.73
2023-01-11T17:17:40.326Z,79.75
2023-01-11T17:20:22.592Z,79.76
2023-01-11T17:22:57.579Z,79.80
2023-01-11T17:25:44.366Z,79.72
2023-01-11T17:28:22.044Z,79.78
2023-01-11T17:30:56.732Z,79.67
2023-01-11T17:33:34.941Z,79.67
2023-01-11T17:36:10.736Z,79.45
2023-01-11T17:38:45.495Z,79.35
2023-01-11T17:41:33.553Z,79.29
2023-01-11T17:44:30.617Z,79.24
2023-01-11T17:47:07.020Z,79.26
2023-01-11T17:49:41.291Z,79.17
2023-01-11T17:52:23.643Z,78.95
2023-01-11T17:55:17.050Z,78.74
2023-01-11T17:58:12.926Z,78.79
2023-01-11T18:00:49.123Z,79.01
2023-01-11T18:03:22.987Z,78.89
2023-01-11T18:05:57.203Z,78.63
2023-01-11T18:08:31.150Z,78.62
2023-01-11T18:11:05.302Z,78.37
2023-01-11T18:13:39.009Z,78.38
2023-01-11T18:16:19.941Z,78.36
2023-01-11T18:18:55.625Z,78.35
2023-01-11T18:21:55.336Z,78.47
2023-01-11T18:24:45.537Z,78.38
2023-01-11T18:27:36.138Z,78.29
2023-01-11T18:30:33.540Z,78.30
2023-01-11T18:33:16.647Z,78.15
2023-01-11T18:35:52.801Z,77.99
2023-01-11T18:38:31.885Z,77.95
2023-01-11T18:41:23.576Z,77.83
2023-01-11T18:43:59.077Z,77.94
2023-01-11T18:46:33.796Z,78.06
2023-01-11T18:49:08.333Z,78.16
2023-01-11T18:51:45.460Z,78.12
2023-01-11T18:54:20.437Z,78.21
2023-01-11T18:56:54.518Z,78.30
2023-01-11T18:59:28.105Z,78.43
2023-01-11T19:02:16.605Z,78.55
2023-01-11T19:04:54.840Z,78.55
2023-01-11T19:07:30.493Z,78.54
2023-01-11T19:10:04.819Z,78.50
2023-01-11T19:12:43.783Z,78.45
2023-01-11T19:15:19.916Z,78.46
2023-01-11T19:17:55.439Z,78.32
2023-01-11T19:23:07.028Z,78.09
2023-01-11T19:25:42.259Z,78.09
2023-01-11T19:28:17.033Z,78.09
2023-01-11T19:30:52.045Z,78.13
2023-01-11T19:33:26.046Z,77.85
2023-01-11T19:36:01.957Z,77.83
2023-01-11T19:38:39.185Z,77.81
2023-01-11T19:41:16.055Z,77.76
2023-01-11T19:43:51.413Z,77.60
2023-01-11T19:46:31.896Z,77.64
2023-01-11T19:49:08.552Z,77.57
2023-01-11T19:51:43.120Z,77.64
2023-01-11T19:54:21.454Z,77.71
2023-01-11T19:56:56.736Z,77.73
2023-01-11T19:59:31.473Z,77.65
2023-01-11T20:02:05.648Z,77.56
2023-01-11T20:04:40.942Z,77.58
2023-01-11T20:07:16.792Z,77.74
2023-01-11T20:09:51.853Z,77.84
2023-01-11T20:12:27.231Z,77.92
2023-01-11T20:15:04.230Z,78.06
2023-01-11T20:17:39.993Z,78.24
2023-01-11T20:20:15.438Z,78.35
2023-01-11T20:22:49.582Z,78.47
2023-01-11T20:25:28.086Z,78.67
2023-01-11T20:28:02.742Z,78.69
2023-01-11T20:30:41.069Z,78.92
2023-01-11T20:33:15.986Z,79.00
2023-01-11T20:35:51.389Z,79.07
2023-01-11T20:38:28.724Z,79.13
2023-01-11T20:41:08.567Z,79.25
2023-01-11T20:43:44.065Z,79.21
2023-01-11T20:46:19.398Z,79.24
2023-01-11T20:48:54.784Z,79.27
2023-01-11T20:51:28.940Z,79.22
2023-01-11T20:54:04.266Z,79.18
2023-01-11T20:56:38.994Z,79.21
2023-01-11T20:59:14.178Z,79.06
2023-01-11T21:01:48.511Z,79.15
2023-01-11T21:04:22.650Z,79.18
2023-01-11T21:06:56.509Z,79.29
2023-01-11T21:09:30.507Z,79.24
2023-01-11T21:12:04.585Z,79.32
2023-01-11T21:14:38.593Z,79.44
2023-01-11T21:17:13.223Z,79.36
2023-01-11T21:19:47.103Z,79.29
2023-01-11T21:22:21.108Z,79.28
2023-01-11T21:24:55.688Z,79.35
2023-01-11T21:27:30.520Z,79.34
2023-01-11T21:30:04.458Z,79.38
2023-01-11T21:32:38.085Z,79.15
2023-01-11T21:35:13.105Z,79.19
2023-01-11T21:37:46.911Z,79.04
2023-01-11T21:40:21.255Z,79.03
2023-01-11T21:42:55.090Z,78.97
2023-01-11T21:45:29.482Z,78.75
2023-01-11T21:48:03.303Z,78.87
2023-01-11T21:50:37.313Z,78.99
2023-01-11T21:53:10.999Z,79.06
2023-01-11T21:55:45.269Z,79.05
2023-01-11T21:58:19.569Z,79.12
2023-01-11T22:00:53.450Z,79.12
2023-01-11T22:03:30.003Z,79.06
2023-01-11T22:06:06.845Z,79.01
2023-01-11T22:08:41.893Z,78.72
2023-01-11T22:11:17.786Z,78.59
2023-01-11T22:13:51.620Z,78.65
2023-01-11T22:16:26.103Z,78.76
2023-01-11T22:19:00.545Z,78.62
2023-01-11T22:21:34.343Z,78.26
2023-01-11T22:24:11.266Z,78.35
2023-01-11T22:26:44.926Z,78.41
2023-01-11T22:29:20.248Z,78.21
2023-01-11T22:31:57.169Z,78.19
2023-01-11T22:34:31.224Z,78.10
2023-01-11T22:37:04.997Z,78.25
2023-01-11T22:39:40.982Z,78.12
2023-01-11T22:42:14.885Z,78.11
2023-01-11T22:44:48.655Z,78.04
2023-01-11T22:47:22.511Z,77.79
2023-01-11T22:49:57.090Z,77.66
2023-01-11T22:52:32.605Z,77.41
2023-01-11T22:55:07.042Z,77.47
2023-01-11T22:57:40.954Z,77.59
2023-01-11T23:00:16.766Z,77.59
2023-01-11T23:02:51.292Z,77.56
2023-01-11T23:05:25.007Z,77.35
2023-01-11T23:07:58.577Z,77.49
2023-01-11T23:10:32.360Z,77.89
2023-01-11T23:13:23.734Z,78.07
2023-01-11T23:15:57.932Z,78.46
2023-01-11T23:18:31.808Z,78.77
2023-01-11T23:21:08.585Z,78.90
2023-01-11T23:23:42.386Z,79.07
2023-01-11T23:26:18.347Z,79.17
2023-01-11T23:28:52.986Z,79.23
2023-01-11T23:31:29.666Z,79.43
2023-01-11T23:34:04.812Z,79.29
2023-01-11T23:36:40.106Z,79.44
2023-01-11T23:39:15.944Z,79.73
2023-01-11T23:42:07.128Z,80.03
2023-01-11T23:44:40.912Z,80.22
2023-01-11T23:47:25.442Z,80.47
2023-01-11T23:50:01.352Z,80.55
2023-01-11T23:52:35.618Z,80.95
2023-01-11T23:55:10.812Z,81.13
2023-01-11T23:58:04.711Z,81.59
